createdAt,value
2022-07-25T00:00:14.459Z,2.00
2022-07-25T00:02:43.501Z,1.50
2022-07-25T00:05:12.079Z,1.45
2022-07-25T00:07:39.327Z,2.22
2022-07-25T00:10:07.367Z,1.65
2022-07-25T00:12:34.652Z,1.42
2022-07-25T00:15:01.941Z,1.20
2022-07-25T00:17:29.217Z,1.75
2022-07-25T00:19:56.508Z,1.55
2022-07-25T00:22:23.809Z,1.60
2022-07-25T00:24:51.093Z,1.30
2022-07-25T00:27:18.363Z,2.10
2022-07-25T00:29:45.680Z,1.02
2022-07-25T00:32:13.154Z,1.20
2022-07-25T00:34:40.422Z,1.42
2022-07-25T00:37:07.710Z,1.08
2022-07-25T00:39:35.724Z,1.10
2022-07-25T00:42:04.089Z,1.60
2022-07-25T00:44:33.266Z,1.75
2022-07-25T00:47:00.944Z,2.22
2022-07-25T00:49:28.390Z,1.42
2022-07-25T00:51:55.797Z,1.40
2022-07-25T00:54:23.862Z,1.40
2022-07-25T00:56:51.587Z,1.25
2022-07-25T00:59:19.054Z,1.35
2022-07-25T01:01:48.239Z,1.55
2022-07-25T01:04:16.650Z,1.33
2022-07-25T01:06:44.089Z,1.92
2022-07-25T01:09:11.394Z,1.83
2022-07-25T01:11:39.129Z,1.60
2022-07-25T01:14:06.860Z,1.80
2022-07-25T01:16:34.454Z,1.73
2022-07-25T01:19:01.778Z,1.70
2022-07-25T01:21:29.225Z,1.60
2022-07-25T01:23:56.573Z,1.90
2022-07-25T01:26:23.881Z,1.95
2022-07-25T01:28:51.210Z,1.50
2022-07-25T01:31:18.569Z,1.85
2022-07-25T01:33:45.923Z,2.25
2022-07-25T01:36:13.245Z,1.77
2022-07-25T01:38:40.531Z,2.45
2022-07-25T01:41:07.897Z,2.35
2022-07-25T01:43:35.210Z,1.90
2022-07-25T01:46:02.754Z,2.42
2022-07-25T01:48:30.477Z,2.20
2022-07-25T01:50:57.752Z,2.70
2022-07-25T01:53:25.084Z,2.28
2022-07-25T01:55:53.571Z,2.63
2022-07-25T01:58:21.957Z,2.65
2022-07-25T02:00:50.208Z,2.25
2022-07-25T02:03:32.894Z,2.10
2022-07-25T02:06:04.305Z,1.98
2022-07-25T02:08:32.169Z,2.00
2022-07-25T02:11:00.978Z,2.53
2022-07-25T02:13:28.437Z,2.38
2022-07-25T02:15:55.749Z,2.75
2022-07-25T02:18:23.075Z,2.70
2022-07-25T02:20:50.420Z,1.95
2022-07-25T02:23:17.713Z,2.67
2022-07-25T02:25:45.005Z,2.58
2022-07-25T02:28:12.307Z,2.30
2022-07-25T02:30:39.660Z,2.28
2022-07-25T02:33:07.166Z,2.20
2022-07-25T02:35:34.485Z,2.45
2022-07-25T02:38:01.792Z,2.40
2022-07-25T02:40:29.094Z,3.45
2022-07-25T02:42:56.386Z,2.40
2022-07-25T02:45:23.744Z,2.13
2022-07-25T02:47:51.287Z,2.33
2022-07-25T02:50:18.547Z,2.60
2022-07-25T02:52:45.830Z,3.22
2022-07-25T02:55:13.375Z,2.38
2022-07-25T02:57:40.750Z,2.53
2022-07-25T03:00:08.464Z,2.15
2022-07-25T03:02:35.749Z,2.05
2022-07-25T03:05:04.167Z,2.15
2022-07-25T03:07:31.426Z,3.05
2022-07-25T03:09:58.718Z,2.92
2022-07-25T03:12:26.046Z,2.60
2022-07-25T03:14:53.294Z,2.60
2022-07-25T03:17:20.589Z,2.70
2022-07-25T03:19:47.838Z,2.95
2022-07-25T03:22:15.206Z,3.45
2022-07-25T03:24:42.476Z,2.65
2022-07-25T03:27:09.955Z,2.80
2022-07-25T03:29:37.300Z,3.40
2022-07-25T03:32:04.807Z,2.40
2022-07-25T03:34:32.133Z,2.30
2022-07-25T03:37:00.295Z,3.58
2022-07-25T03:39:27.980Z,3.13
2022-07-25T03:41:55.925Z,2.92
2022-07-25T03:44:24.149Z,3.13
2022-07-25T03:46:51.450Z,3.70
2022-07-25T03:49:19.476Z,3.53
2022-07-25T03:51:46.774Z,3.20
2022-07-25T03:54:14.044Z,2.67
2022-07-25T03:56:43.891Z,2.72
2022-07-25T03:59:12.813Z,3.47
2022-07-25T04:01:40.301Z,2.55
2022-07-25T04:04:08.303Z,2.50
2022-07-25T04:06:35.797Z,2.50
2022-07-25T04:09:03.116Z,2.97
2022-07-25T04:11:31.002Z,3.05
2022-07-25T04:13:59.192Z,3.05
2022-07-25T04:16:27.834Z,3.63
2022-07-25T04:18:56.272Z,4.07
2022-07-25T04:21:24.757Z,2.30
2022-07-25T04:23:52.204Z,3.03
2022-07-25T04:26:20.104Z,3.30
2022-07-25T04:28:48.446Z,2.95
2022-07-25T04:31:15.787Z,3.05
2022-07-25T04:33:43.374Z,3.25
2022-07-25T04:36:10.718Z,3.08
2022-07-25T04:38:37.978Z,2.83
2022-07-25T04:41:05.762Z,3.38
2022-07-25T04:43:33.056Z,3.45
2022-07-25T04:46:01.287Z,3.30
2022-07-25T04:48:29.144Z,4.18
2022-07-25T04:50:56.405Z,3.08
2022-07-25T04:53:23.819Z,3.40
2022-07-25T04:55:51.156Z,2.90
2022-07-25T04:58:18.494Z,3.78
2022-07-25T05:00:45.840Z,3.95
2022-07-25T05:03:13.186Z,3.30
2022-07-25T05:05:40.462Z,3.45
2022-07-25T05:08:07.789Z,4.68
2022-07-25T05:10:35.129Z,3.53
2022-07-25T05:13:02.473Z,3.35
2022-07-25T05:15:29.813Z,3.17
2022-07-25T05:17:57.090Z,2.55
2022-07-25T05:20:24.445Z,4.80
2022-07-25T05:22:51.955Z,3.63
2022-07-25T05:25:19.589Z,3.63
2022-07-25T05:27:46.922Z,3.72
2022-07-25T05:30:14.876Z,3.65
2022-07-25T05:32:42.388Z,3.47
2022-07-25T05:35:10.232Z,3.53
2022-07-25T05:37:37.901Z,2.45
2022-07-25T05:40:06.226Z,2.92
2022-07-25T05:42:33.757Z,3.45
2022-07-25T05:45:01.233Z,3.38
2022-07-25T05:47:28.537Z,2.83
2022-07-25T05:49:56.249Z,4.22
2022-07-25T05:52:23.718Z,3.25
2022-07-25T05:54:51.363Z,3.10
2022-07-25T05:57:18.680Z,2.35
2022-07-25T05:59:46.075Z,2.03
2022-07-25T06:02:13.435Z,4.55
2022-07-25T06:04:40.904Z,1.88
2022-07-25T06:07:08.194Z,1.63
2022-07-25T06:09:36.084Z,1.77
2022-07-25T06:12:03.390Z,1.73
2022-07-25T06:14:31.617Z,1.60
2022-07-25T06:16:58.963Z,1.42
2022-07-25T06:19:26.542Z,1.90
2022-07-25T06:21:53.963Z,2.33
2022-07-25T06:24:21.240Z,1.52
2022-07-25T06:26:48.511Z,1.85
2022-07-25T06:29:15.789Z,2.00
2022-07-25T06:31:47.046Z,1.70
2022-07-25T06:34:14.757Z,1.93
2022-07-25T06:36:42.033Z,1.77
2022-07-25T06:39:09.323Z,2.75
2022-07-25T06:41:37.634Z,3.05
2022-07-25T06:44:05.436Z,2.25
2022-07-25T06:46:33.131Z,1.92
2022-07-25T06:49:00.584Z,2.13
2022-07-25T06:51:28.063Z,1.70
2022-07-25T06:53:56.667Z,2.30
2022-07-25T06:56:24.033Z,2.33
2022-07-25T06:58:53.225Z,2.03
2022-07-25T07:01:20.700Z,2.20
2022-07-25T07:03:48.489Z,1.70
2022-07-25T07:06:15.893Z,1.30
2022-07-25T07:08:43.182Z,1.83
2022-07-25T07:11:10.442Z,1.92
2022-07-25T07:13:37.712Z,1.83
2022-07-25T07:16:05.644Z,2.00
2022-07-25T07:18:32.988Z,1.63
2022-07-25T07:21:00.241Z,2.45
2022-07-25T07:23:29.137Z,1.67
2022-07-25T07:25:56.637Z,1.70
2022-07-25T07:28:23.942Z,1.95
2022-07-25T07:31:16.100Z,1.65
2022-07-25T07:33:38.704Z,1.73
2022-07-25T07:36:06.219Z,1.90
2022-07-25T07:38:33.492Z,1.52
2022-07-25T07:41:00.783Z,1.25
2022-07-25T07:43:30.487Z,1.77
2022-07-25T07:46:01.771Z,1.92
2022-07-25T07:48:29.995Z,1.73
2022-07-25T07:50:57.671Z,1.65
2022-07-25T07:53:45.430Z,1.42
2022-07-25T07:56:12.823Z,1.35
2022-07-25T07:58:40.181Z,0.90
2022-07-25T08:01:07.711Z,0.80
2022-07-25T08:03:36.031Z,0.85
2022-07-25T08:06:03.359Z,0.65
2022-07-25T08:08:31.662Z,0.75
2022-07-25T08:10:59.777Z,1.58
2022-07-25T08:13:29.152Z,0.80
2022-07-25T08:15:59.267Z,0.68
2022-07-25T08:18:27.298Z,1.35
2022-07-25T08:20:54.744Z,0.80
2022-07-25T08:23:22.683Z,0.75
2022-07-25T08:25:50.171Z,1.08
2022-07-25T08:28:17.539Z,1.38
2022-07-25T08:30:44.815Z,1.00
2022-07-25T08:33:13.674Z,1.00
2022-07-25T08:35:42.064Z,1.10
2022-07-25T08:38:11.678Z,0.70
2022-07-25T08:40:39.152Z,1.00
2022-07-25T08:43:06.700Z,0.77
2022-07-25T08:45:34.250Z,0.75
2022-07-25T08:48:01.601Z,0.93
2022-07-25T08:50:29.791Z,0.60
2022-07-25T08:53:16.718Z,0.60
2022-07-25T08:55:45.769Z,0.70
2022-07-25T08:58:14.368Z,0.80
2022-07-25T09:00:41.975Z,0.60
2022-07-25T09:03:09.507Z,0.70
2022-07-25T09:05:37.438Z,0.50
2022-07-25T09:08:10.000Z,0.80
2022-07-25T09:10:37.559Z,0.43
2022-07-25T09:13:11.092Z,0.50
2022-07-25T09:15:39.948Z,0.40
2022-07-25T09:18:10.854Z,0.50
2022-07-25T09:20:44.224Z,0.50
2022-07-25T09:23:12.098Z,0.50
2022-07-25T09:25:39.357Z,0.85
2022-07-25T09:28:17.164Z,0.85
2022-07-25T09:30:55.377Z,0.80
2022-07-25T09:33:26.181Z,0.77
2022-07-25T09:35:53.505Z,0.70
2022-07-25T09:38:21.546Z,0.80
2022-07-25T09:40:55.543Z,0.52
2022-07-25T09:43:23.889Z,0.70
2022-07-25T09:45:52.104Z,0.70
2022-07-25T09:48:21.016Z,1.40
2022-07-25T09:50:48.325Z,1.58
2022-07-25T09:53:15.725Z,0.63
2022-07-25T09:55:43.112Z,0.80
2022-07-25T09:58:10.370Z,0.57
2022-07-25T10:00:40.801Z,0.70
2022-07-25T10:03:08.177Z,0.60
2022-07-25T10:05:38.609Z,0.43
2022-07-25T10:08:09.126Z,0.50
2022-07-25T10:10:41.267Z,0.50
2022-07-25T10:13:16.963Z,0.40
2022-07-25T10:15:49.474Z,0.75
2022-07-25T10:20:45.274Z,0.32
2022-07-25T10:23:25.924Z,0.55
2022-07-25T10:26:05.719Z,1.25
2022-07-25T10:28:37.394Z,0.75
2022-07-25T10:31:15.434Z,0.73
2022-07-25T10:33:43.177Z,0.70
2022-07-25T10:36:11.521Z,0.60
2022-07-25T10:38:41.226Z,0.88
2022-07-25T10:41:10.402Z,0.60
2022-07-25T10:43:38.666Z,0.55
2022-07-25T10:46:18.442Z,1.20
2022-07-25T10:48:45.845Z,0.90
2022-07-25T10:51:14.167Z,0.57
2022-07-25T10:53:44.323Z,0.60
2022-07-25T10:56:14.484Z,0.60
2022-07-25T10:58:50.953Z,0.88
2022-07-25T11:01:44.910Z,0.60
2022-07-25T11:04:18.045Z,0.70
2022-07-25T11:06:45.482Z,0.80
2022-07-25T11:09:26.371Z,0.80
2022-07-25T11:11:55.590Z,1.25
2022-07-25T11:14:23.985Z,0.90
2022-07-25T11:16:56.063Z,1.02
2022-07-25T11:19:28.877Z,1.15
2022-07-25T11:21:56.121Z,0.82
2022-07-25T11:24:24.129Z,1.10
2022-07-25T11:26:52.997Z,0.93
2022-07-25T11:29:21.299Z,1.08
2022-07-25T11:31:55.794Z,1.23
2022-07-25T11:34:24.517Z,1.23
2022-07-25T11:36:55.210Z,0.80
2022-07-25T11:39:23.015Z,0.82
2022-07-25T11:41:59.552Z,0.70
2022-07-25T11:44:36.047Z,2.35
2022-07-25T11:47:04.192Z,0.95
2022-07-25T12:09:37.646Z,0.80
2022-07-25T12:12:05.367Z,0.80
2022-07-25T12:14:35.497Z,0.75
2022-07-25T12:17:03.131Z,0.80
2022-07-25T12:19:30.452Z,0.80
2022-07-25T12:21:57.855Z,0.57
2022-07-25T12:24:25.152Z,1.23
2022-07-25T12:26:52.473Z,0.77
2022-07-25T12:29:19.747Z,0.95
2022-07-25T12:31:47.030Z,1.27
2022-07-25T12:34:14.350Z,0.80
2022-07-25T12:36:44.967Z,1.25
2022-07-25T12:39:12.382Z,0.70
2022-07-25T12:41:40.672Z,0.60
2022-07-25T12:44:07.980Z,0.82
2022-07-25T12:46:36.072Z,1.10
2022-07-25T12:49:03.686Z,0.57
2022-07-25T12:51:31.191Z,1.60
2022-07-25T12:53:58.481Z,1.83
2022-07-25T12:56:25.860Z,1.00
2022-07-25T12:58:53.212Z,0.93
2022-07-25T13:01:20.610Z,1.10
2022-07-25T13:03:48.014Z,0.85
2022-07-25T13:06:15.509Z,1.05
2022-07-25T13:08:42.860Z,0.93
2022-07-25T13:11:10.173Z,1.00
2022-07-25T13:13:37.561Z,1.15
2022-07-25T13:16:05.222Z,2.60
2022-07-25T13:18:32.722Z,1.20
2022-07-25T13:21:03.394Z,1.02
2022-07-25T13:23:30.756Z,1.10
2022-07-25T13:26:00.372Z,2.75
2022-07-25T13:28:27.833Z,1.08
2022-07-25T13:30:55.271Z,1.20
2022-07-25T13:33:23.060Z,1.20
2022-07-25T13:35:50.436Z,2.50
2022-07-25T13:38:17.740Z,1.02
2022-07-25T13:40:45.062Z,1.10
2022-07-25T13:43:13.527Z,0.77
2022-07-25T13:45:42.235Z,1.27
2022-07-25T13:48:29.140Z,1.27
2022-07-25T13:50:57.301Z,1.55
2022-07-25T13:53:29.500Z,1.50
2022-07-25T13:55:58.198Z,1.08
2022-07-25T13:58:25.808Z,1.52
2022-07-25T14:00:53.270Z,1.10
2022-07-25T14:03:20.884Z,1.13
2022-07-25T14:05:48.310Z,1.02
2022-07-25T14:08:16.013Z,1.25
2022-07-25T14:10:43.824Z,1.17
2022-07-25T14:13:13.083Z,1.00
2022-07-25T14:15:40.568Z,1.05
2022-07-25T14:18:07.926Z,1.17
2022-07-25T14:20:35.209Z,1.00
2022-07-25T14:23:02.534Z,2.50
2022-07-25T14:25:29.847Z,1.10
2022-07-25T14:27:57.185Z,1.63
2022-07-25T14:30:24.536Z,1.00
2022-07-25T14:32:52.055Z,1.20
2022-07-25T14:35:20.691Z,0.90
2022-07-25T14:37:47.964Z,1.20
2022-07-25T14:40:15.739Z,0.85
2022-07-25T14:42:44.531Z,1.38
2022-07-25T14:45:12.714Z,0.70
2022-07-25T14:47:40.557Z,0.90
2022-07-25T14:50:08.046Z,0.98
2022-07-25T14:52:35.372Z,1.00
2022-07-25T14:55:03.047Z,0.80
2022-07-25T14:57:30.331Z,1.10
2022-07-25T14:59:57.655Z,0.60
2022-07-25T15:02:24.991Z,0.77
2022-07-25T15:04:52.533Z,0.75
2022-07-25T15:07:19.870Z,1.25
2022-07-25T15:09:47.164Z,0.75
2022-07-25T15:12:16.607Z,1.27
2022-07-25T15:14:44.665Z,1.10
2022-07-25T15:17:12.100Z,0.80
2022-07-25T15:19:39.389Z,1.00
2022-07-25T15:22:06.695Z,1.38
2022-07-25T15:24:50.143Z,0.55
2022-07-25T15:27:21.353Z,1.08
2022-07-25T15:29:48.617Z,0.95
2022-07-25T15:32:15.881Z,0.85
2022-07-25T15:34:43.369Z,1.10
2022-07-25T15:37:11.778Z,1.33
2022-07-25T15:39:39.201Z,0.85
2022-07-25T15:42:06.625Z,0.63
2022-07-25T15:44:33.982Z,1.38
2022-07-25T15:47:01.358Z,1.95
2022-07-25T15:49:29.011Z,0.90
2022-07-25T15:51:56.327Z,1.58
2022-07-25T15:54:27.699Z,1.05
2022-07-25T15:56:56.676Z,1.02
2022-07-25T15:59:23.996Z,1.08
2022-07-25T16:01:51.294Z,1.80
2022-07-25T16:04:19.291Z,1.30
2022-07-25T16:06:46.729Z,1.23
2022-07-25T16:09:16.097Z,1.23
2022-07-25T16:11:43.367Z,0.82
2022-07-25T16:14:11.092Z,1.38
2022-07-25T16:16:38.530Z,1.20
2022-07-25T16:19:06.251Z,1.42
2022-07-25T16:21:33.708Z,1.10
2022-07-25T16:24:01.115Z,1.50
2022-07-25T16:26:28.984Z,1.40
2022-07-25T16:28:57.913Z,1.10
2022-07-25T16:31:26.509Z,1.45
2022-07-25T16:33:54.035Z,1.20
2022-07-25T16:36:21.386Z,1.40
2022-07-25T16:38:49.201Z,1.00
2022-07-25T16:41:16.561Z,1.30
2022-07-25T16:43:43.880Z,1.25
2022-07-25T16:46:11.237Z,1.48
2022-07-25T16:48:38.542Z,1.25
2022-07-25T16:51:05.862Z,1.10
2022-07-25T16:53:33.291Z,1.00
2022-07-25T16:56:00.673Z,2.45
2022-07-25T16:58:28.181Z,1.52
2022-07-25T17:00:55.459Z,1.35
2022-07-25T17:03:22.863Z,1.50
2022-07-25T17:05:51.763Z,1.40
2022-07-25T17:08:19.145Z,1.92
2022-07-25T17:10:46.462Z,1.38
2022-07-25T17:13:13.765Z,1.48
2022-07-25T17:15:43.101Z,1.10
2022-07-25T17:18:10.419Z,0.70
2022-07-25T17:20:37.743Z,1.20
2022-07-25T17:23:05.122Z,1.10
2022-07-25T17:25:32.675Z,1.92
2022-07-25T17:28:00.120Z,1.85
2022-07-25T17:30:27.548Z,1.00
2022-07-25T17:32:54.915Z,1.00
2022-07-25T17:35:22.244Z,1.00
2022-07-25T18:12:44.994Z,1.20
2022-07-25T18:15:14.225Z,1.08
2022-07-25T18:17:44.820Z,0.82
2022-07-25T18:20:13.234Z,1.10
2022-07-25T18:22:43.455Z,1.23
2022-07-25T18:25:11.622Z,1.30
2022-07-25T18:27:42.945Z,1.00
2022-07-25T18:30:10.853Z,1.13
2022-07-25T18:32:38.700Z,1.30
2022-07-25T18:35:07.779Z,0.95
2022-07-25T18:37:35.386Z,0.57
2022-07-25T18:40:02.723Z,1.27
2022-07-25T18:42:30.319Z,1.02
2022-07-25T18:44:57.994Z,1.00
2022-07-25T18:47:27.900Z,1.00
2022-07-25T18:49:59.769Z,0.80
2022-07-25T18:52:27.396Z,1.60
2022-07-25T18:54:54.692Z,2.00
2022-07-25T18:57:22.011Z,0.98
2022-07-25T18:59:49.330Z,1.02
2022-07-25T19:02:16.698Z,1.20
2022-07-25T19:04:44.130Z,1.05
2022-07-25T19:07:11.413Z,1.20
2022-07-25T19:09:38.686Z,0.95
2022-07-25T19:12:06.367Z,1.67
2022-07-25T19:14:33.678Z,1.42
2022-07-25T19:17:02.346Z,1.02
2022-07-25T19:19:30.171Z,2.67
2022-07-25T19:21:57.422Z,1.17
2022-07-25T19:24:25.017Z,1.55
2022-07-25T19:26:52.495Z,1.52
2022-07-25T19:29:20.957Z,1.08
2022-07-25T19:31:48.369Z,2.13
2022-07-25T19:34:15.870Z,1.33
2022-07-25T19:36:45.843Z,1.42
2022-07-25T19:39:13.704Z,1.05
2022-07-25T19:41:46.164Z,1.38
2022-07-25T19:44:14.330Z,1.33
2022-07-25T19:46:41.714Z,1.40
2022-07-25T19:49:09.315Z,2.03
2022-07-25T19:51:36.845Z,1.73
2022-07-25T19:54:04.771Z,1.20
2022-07-25T19:56:34.228Z,1.35
2022-07-25T19:59:02.382Z,1.80
2022-07-25T20:01:29.967Z,1.15
2022-07-25T20:03:57.454Z,1.85
2022-07-25T20:06:24.833Z,1.60
2022-07-25T20:08:52.282Z,1.45
2022-07-25T20:11:19.639Z,1.90
2022-07-25T20:13:46.957Z,2.22
2022-07-25T20:16:14.441Z,1.77
2022-07-25T20:18:41.910Z,1.92
2022-07-25T20:21:10.959Z,1.30
2022-07-25T20:23:38.555Z,2.10
2022-07-25T20:26:05.854Z,1.90
2022-07-25T20:28:33.187Z,1.58
2022-07-25T20:31:01.866Z,1.50
2022-07-25T20:33:29.541Z,1.42
2022-07-25T20:35:57.580Z,1.67
2022-07-25T20:38:32.374Z,1.55
2022-07-25T20:41:00.423Z,1.58
2022-07-25T20:43:28.631Z,1.55
2022-07-25T20:45:56.262Z,1.75
2022-07-25T20:48:24.043Z,1.85
2022-07-25T20:50:51.330Z,2.00
2022-07-25T20:53:19.608Z,1.90
2022-07-25T20:55:46.923Z,1.85
2022-07-25T20:58:14.304Z,1.60
2022-07-25T21:00:41.965Z,1.83
2022-07-25T21:03:09.767Z,1.65
2022-07-25T21:05:41.956Z,1.35
2022-07-25T21:08:11.024Z,1.80
2022-07-25T21:10:39.183Z,1.27
2022-07-25T21:13:06.481Z,1.27
2022-07-25T21:15:33.858Z,1.30
2022-07-25T21:18:01.220Z,1.10
2022-07-25T21:20:28.513Z,0.80
2022-07-25T21:22:55.826Z,1.42
2022-07-25T21:25:23.163Z,0.55
2022-07-25T21:27:50.645Z,0.80
2022-07-25T21:30:18.047Z,0.80
2022-07-25T21:32:45.429Z,0.70
2022-07-25T21:35:12.889Z,0.40
2022-07-25T21:37:40.172Z,0.60
2022-07-25T21:40:07.789Z,0.70
2022-07-25T21:42:35.932Z,0.50
2022-07-25T21:45:03.281Z,0.60
2022-07-25T21:47:30.546Z,0.38
2022-07-25T21:50:19.296Z,0.30
2022-07-25T21:52:52.853Z,0.40
2022-07-25T21:55:20.924Z,0.40
2022-07-25T21:57:48.913Z,0.57
2022-07-25T22:00:16.709Z,0.40
2022-07-25T22:02:44.826Z,0.50
2022-07-25T22:05:12.858Z,0.47
2022-07-25T22:07:40.282Z,0.30
2022-07-25T22:10:08.510Z,0.35
2022-07-25T22:12:35.783Z,0.40
2022-07-25T22:15:03.802Z,0.30
2022-07-25T22:17:48.663Z,0.45
2022-07-25T22:20:17.825Z,0.50
2022-07-25T22:22:45.149Z,0.50
2022-07-25T22:25:12.436Z,0.30
2022-07-25T22:27:39.763Z,0.45
2022-07-25T22:30:07.377Z,0.30
2022-07-25T22:32:34.682Z,0.30
2022-07-25T22:35:01.981Z,0.30
2022-07-25T22:37:32.569Z,0.30
2022-07-25T22:40:01.338Z,0.43
2022-07-25T22:42:28.943Z,0.40
2022-07-25T22:44:56.216Z,0.30
2022-07-25T22:47:23.485Z,0.30
2022-07-25T22:49:50.768Z,0.43
2022-07-25T22:52:18.076Z,0.38
2022-07-25T22:54:45.534Z,0.30
2022-07-25T22:57:12.784Z,0.30
2022-07-25T22:59:40.036Z,0.20
2022-07-25T23:02:07.500Z,0.30
2022-07-25T23:04:34.894Z,0.22
2022-07-25T23:07:02.237Z,0.30
2022-07-25T23:09:36.451Z,0.30
2022-07-25T23:12:04.909Z,0.30
2022-07-25T23:14:32.231Z,0.20
2022-07-25T23:17:17.779Z,0.32
2022-07-25T23:19:45.436Z,0.20
2022-07-25T23:22:12.730Z,0.38
2022-07-25T23:24:40.205Z,0.20
2022-07-25T23:27:07.709Z,0.20
2022-07-25T23:29:35.090Z,0.30
2022-07-25T23:32:02.780Z,0.20
2022-07-25T23:34:30.169Z,0.20
2022-07-25T23:36:57.549Z,0.30
2022-07-25T23:39:24.885Z,0.28
2022-07-25T23:41:52.245Z,0.22
2022-07-25T23:44:19.557Z,0.20
2022-07-25T23:46:47.141Z,0.20
2022-07-25T23:49:14.580Z,0.20
2022-07-25T23:51:41.908Z,0.30
2022-07-25T23:54:09.353Z,0.30
2022-07-25T23:56:36.685Z,0.20
2022-07-25T23:59:04.438Z,0.17
